首页
METAR-TAF:

METAR-TAF

机场 :

Greenwood County Airport

Greenwood, 南卡罗来纳州, 美国

纬度: 34-14-50N, 经度: 082-09-17W, 海拔: 192米

当前天气观测

该预报发布于1小时和0分钟前的20:56 UTC
风速4节,风向多变
温度 8°C
湿度 100%
气压 1022 hPa
能見度: 8.0公里
多云层高于700英尺
阴天层高于1400英尺
轻雾

METAR: KGRD 262056Z AUTO VRB04KT 5SM BR BKN007 OVC014 08/08 A3019 RMK AO2 RAE56 CIG 005V012 SLP223 P0003 60007 T00830083 56009

时间: 16:56 (21:56 UTC)


TAF: 丢失

超过4000个机场的气象观测和天气预报(METAR&TAF报告)。

可查询的气象台以黄色和红色小点在地图上表示。

将鼠标移到小点上方,可查看气象台名称。

然后点击查看天气观测和预报。

如需切换地图:点击带黑十字的绿色按钮放大地图;点击带横线的绿色按钮缩小地图;或者点击绿色箭头查看邻近地区的地图。


METAR-TAF: